createdAt,value
2022-09-02T00:01:29.564Z,5.67
2022-09-02T00:03:59.539Z,5.43
2022-09-02T00:06:28.944Z,5.43
2022-09-02T00:08:57.168Z,6.20
2022-09-02T00:11:29.202Z,5.80
2022-09-02T00:13:58.205Z,5.67
2022-09-02T00:16:27.294Z,6.10
2022-09-02T00:18:56.502Z,5.40
2022-09-02T00:21:25.606Z,5.70
2022-09-02T00:23:54.382Z,6.23
2022-09-02T00:26:23.252Z,6.27
2022-09-02T00:28:56.090Z,6.20
2022-09-02T00:31:25.669Z,5.57
2022-09-02T00:33:53.819Z,5.80
2022-09-02T00:36:22.356Z,6.50
2022-09-02T00:38:50.500Z,5.83
2022-09-02T00:41:21.265Z,6.43
2022-09-02T00:43:51.054Z,5.50
2022-09-02T00:46:22.678Z,6.10
2022-09-02T00:48:55.614Z,6.03
2022-09-02T00:51:24.393Z,6.47
2022-09-02T00:53:52.512Z,6.30
2022-09-02T00:56:23.018Z,6.67
2022-09-02T00:58:52.141Z,6.03
2022-09-02T01:01:22.611Z,6.80
2022-09-02T01:03:52.088Z,6.30
2022-09-02T01:06:22.142Z,6.77
2022-09-02T01:08:54.604Z,7.23
2022-09-02T01:11:23.029Z,6.73
2022-09-02T01:13:51.287Z,6.97
2022-09-02T01:16:25.721Z,7.17
2022-09-02T01:18:56.692Z,7.40
2022-09-02T01:21:24.767Z,6.97
2022-09-02T01:23:55.321Z,8.10
2022-09-02T01:26:24.489Z,7.60
2022-09-02T01:28:53.596Z,7.80
2022-09-02T01:31:21.640Z,7.20
2022-09-02T01:33:51.380Z,7.27
2022-09-02T01:36:21.892Z,7.10
2022-09-02T01:38:49.982Z,7.87
2022-09-02T01:41:19.400Z,7.90
2022-09-02T01:43:47.550Z,8.50
2022-09-02T01:46:15.770Z,7.90
2022-09-02T01:48:44.306Z,8.50
2022-09-02T01:51:17.579Z,8.00
2022-09-02T01:53:46.843Z,8.00
2022-09-02T01:56:15.311Z,8.63
2022-09-02T01:58:45.830Z,8.27
2022-09-02T02:01:13.949Z,7.80
2022-09-02T02:03:43.136Z,9.20
2022-09-02T02:06:12.479Z,9.80
2022-09-02T02:08:42.126Z,8.67
2022-09-02T02:11:11.330Z,8.90
2022-09-02T02:13:39.490Z,9.77
2022-09-02T02:16:09.270Z,9.83
2022-09-02T02:18:37.695Z,9.60
2022-09-02T02:21:05.957Z,9.47
2022-09-02T02:23:34.279Z,10.17
2022-09-02T02:26:02.312Z,9.57
2022-09-02T02:28:30.408Z,10.53
2022-09-02T02:31:00.020Z,10.70
2022-09-02T02:33:34.999Z,10.10
2022-09-02T02:36:05.576Z,9.57
2022-09-02T02:38:33.768Z,9.27
2022-09-02T02:41:02.125Z,9.43
2022-09-02T02:43:30.578Z,10.73
2022-09-02T02:45:58.740Z,10.50
2022-09-02T02:48:26.770Z,10.80
2022-09-02T02:50:56.939Z,10.80
2022-09-02T02:53:25.020Z,10.00
2022-09-02T02:55:53.211Z,10.80
2022-09-02T02:58:21.248Z,11.10
2022-09-02T03:00:50.080Z,10.20
2022-09-02T03:03:20.304Z,10.23
2022-09-02T03:05:52.550Z,10.20
2022-09-02T03:08:25.769Z,11.27
2022-09-02T03:10:55.497Z,10.27
2022-09-02T03:13:27.353Z,10.33
2022-09-02T03:15:58.008Z,10.17
2022-09-02T03:18:27.112Z,10.80
2022-09-02T03:20:55.633Z,11.53
2022-09-02T03:23:25.930Z,9.90
2022-09-02T03:26:20.279Z,10.27
2022-09-02T03:28:49.638Z,9.50
2022-09-02T03:31:20.647Z,9.67
2022-09-02T03:33:49.555Z,10.10
2022-09-02T03:36:22.360Z,10.20
2022-09-02T03:38:52.827Z,9.60
2022-09-02T03:41:21.321Z,10.20
2022-09-02T03:43:49.660Z,11.50
2022-09-02T03:46:18.673Z,10.80
2022-09-02T03:48:47.350Z,12.60
2022-09-02T03:51:15.466Z,10.37
2022-09-02T03:53:43.653Z,10.17
2022-09-02T03:56:15.404Z,11.40
2022-09-02T03:58:43.759Z,12.10
2022-09-02T04:01:15.071Z,10.57
2022-09-02T04:03:43.560Z,12.10
2022-09-02T04:06:37.618Z,12.87
2022-09-02T04:09:07.086Z,11.47
2022-09-02T04:11:37.340Z,10.70
2022-09-02T04:14:05.713Z,12.17
2022-09-02T04:16:34.990Z,12.80
2022-09-02T04:19:08.635Z,14.50
2022-09-02T04:21:39.838Z,14.40
2022-09-02T04:24:10.327Z,13.73
2022-09-02T04:26:45.140Z,13.40
2022-09-02T04:29:15.702Z,11.93
2022-09-02T04:31:45.451Z,12.70
2022-09-02T04:34:13.783Z,11.17
2022-09-02T04:36:43.201Z,12.97
2022-09-02T04:39:13.682Z,13.00
2022-09-02T04:41:43.557Z,12.70
2022-09-02T04:44:13.777Z,15.07
2022-09-02T04:46:45.115Z,13.80
2022-09-02T04:49:18.066Z,12.83
2022-09-02T04:51:47.276Z,14.07
2022-09-02T04:54:16.015Z,15.27
2022-09-02T04:56:49.507Z,14.40
2022-09-02T04:59:21.238Z,14.17
2022-09-02T05:02:01.045Z,12.50
2022-09-02T05:04:31.930Z,11.97
2022-09-02T05:07:01.979Z,14.67
2022-09-02T05:09:32.842Z,15.13
2022-09-02T05:12:05.905Z,13.80
2022-09-02T05:14:41.473Z,14.50
2022-09-02T05:17:10.716Z,12.87
2022-09-02T05:19:42.003Z,14.50
2022-09-02T05:22:10.457Z,13.80
2022-09-02T05:24:43.339Z,15.47
2022-09-02T05:27:16.314Z,15.53
2022-09-02T05:29:45.989Z,15.47
2022-09-02T05:32:16.732Z,15.37
2022-09-02T05:34:47.975Z,15.60
2022-09-02T05:37:16.381Z,16.67
2022-09-02T05:39:44.455Z,12.57
2022-09-02T05:42:12.719Z,13.27
2022-09-02T05:44:44.724Z,13.80
2022-09-02T05:47:15.334Z,13.90
2022-09-02T05:49:44.293Z,13.30
2022-09-02T05:52:15.238Z,14.30
2022-09-02T05:54:50.341Z,14.07
2022-09-02T05:57:21.069Z,13.37
2022-09-02T05:59:58.451Z,13.43
2022-09-02T06:02:52.459Z,11.57
2022-09-02T06:05:26.962Z,12.00
2022-09-02T06:08:05.319Z,14.23
2022-09-02T06:10:33.931Z,12.90
2022-09-02T06:13:02.523Z,12.50
2022-09-02T06:15:35.251Z,10.60
2022-09-02T06:18:03.996Z,12.37
2022-09-02T06:20:34.407Z,11.37
2022-09-02T06:23:04.234Z,11.33
2022-09-02T06:25:32.826Z,10.17
2022-09-02T06:28:06.463Z,10.40
2022-09-02T06:30:41.397Z,10.47
2022-09-02T06:33:11.802Z,9.47
2022-09-02T06:35:44.463Z,9.83
2022-09-02T06:38:15.265Z,9.40
2022-09-02T06:40:48.883Z,9.13
2022-09-02T06:43:18.190Z,9.57
2022-09-02T06:46:00.196Z,8.90
2022-09-02T06:48:28.711Z,8.30
2022-09-02T06:50:57.841Z,8.37
2022-09-02T06:53:25.955Z,7.47
2022-09-02T06:55:54.771Z,7.33
2022-09-02T06:58:23.436Z,8.13
2022-09-02T07:00:51.588Z,7.00
2022-09-02T07:03:38.458Z,5.60
2022-09-02T07:06:10.165Z,9.30
2022-09-02T07:08:44.367Z,6.97
2022-09-02T07:11:18.841Z,6.20
2022-09-02T07:13:48.892Z,5.77
2022-09-02T07:16:26.709Z,4.97
2022-09-02T07:19:01.211Z,5.17
2022-09-02T07:21:30.319Z,5.20
2022-09-02T07:23:59.612Z,5.53
2022-09-02T07:26:28.803Z,4.93
2022-09-02T07:28:58.468Z,4.47
2022-09-02T07:31:27.496Z,4.47
2022-09-02T07:33:59.162Z,4.17
2022-09-02T07:36:29.519Z,4.10
2022-09-02T07:38:58.792Z,4.33
2022-09-02T07:41:27.291Z,4.17
2022-09-02T07:43:59.544Z,4.37
2022-09-02T07:46:32.844Z,4.10
2022-09-02T07:49:05.850Z,5.00
2022-09-02T07:51:40.718Z,4.60
2022-09-02T07:54:10.536Z,4.50
2022-09-02T07:56:38.823Z,4.20
2022-09-02T07:59:08.372Z,4.00
2022-09-02T08:01:38.135Z,4.40
2022-09-02T08:04:08.120Z,4.40
2022-09-02T08:06:37.714Z,4.00
2022-09-02T08:09:11.188Z,3.93
2022-09-02T08:11:40.324Z,4.27
2022-09-02T08:14:09.504Z,4.17
2022-09-02T08:16:40.104Z,4.13
2022-09-02T08:19:09.953Z,3.80
2022-09-02T08:21:38.051Z,4.13
2022-09-02T08:24:06.375Z,4.10
2022-09-02T08:26:37.121Z,3.97
2022-09-02T08:29:05.771Z,4.17
2022-09-02T08:31:34.327Z,5.10
2022-09-02T08:34:29.290Z,4.80
2022-09-02T08:36:58.061Z,4.27
2022-09-02T08:39:26.672Z,4.67
2022-09-02T08:44:38.188Z,3.90
2022-09-02T08:47:07.879Z,4.73
2022-09-02T08:49:40.338Z,4.03
2022-09-02T08:52:08.546Z,3.90
2022-09-02T08:54:41.215Z,4.30
2022-09-02T08:57:10.065Z,3.97
2022-09-02T09:02:17.630Z,3.70
2022-09-02T09:05:02.666Z,3.57
2022-09-02T09:10:15.358Z,3.97
2022-09-02T09:12:57.254Z,4.03
2022-09-02T09:15:34.086Z,3.97
2022-09-02T09:18:04.037Z,4.00
2022-09-02T09:20:35.085Z,4.10
2022-09-02T09:23:10.106Z,4.33
2022-09-02T09:25:38.150Z,3.93
2022-09-02T09:28:06.230Z,3.90
2022-09-02T09:30:34.299Z,4.37
2022-09-02T09:33:04.399Z,3.77
2022-09-02T09:35:49.727Z,3.70
2022-09-02T09:38:17.881Z,3.80
2022-09-02T09:40:46.080Z,3.97
2022-09-02T09:43:16.480Z,4.00
2022-09-02T09:45:45.746Z,3.77
2022-09-02T09:48:22.987Z,4.07
2022-09-02T09:51:12.916Z,4.27
2022-09-02T09:53:41.429Z,4.23
2022-09-02T09:56:27.833Z,4.03
2022-09-02T09:58:55.986Z,4.23
2022-09-02T10:01:26.153Z,4.68
2022-09-02T10:03:57.312Z,3.77
2022-09-02T10:06:38.720Z,4.43
2022-09-02T10:09:08.619Z,3.50
2022-09-02T10:11:38.589Z,3.87
2022-09-02T10:14:08.017Z,3.97
2022-09-02T10:16:46.151Z,3.63
2022-09-02T10:19:20.681Z,3.80
2022-09-02T10:22:05.228Z,4.07
2022-09-02T10:24:45.781Z,4.00
2022-09-02T10:27:17.404Z,4.13
2022-09-02T10:29:54.327Z,4.17
2022-09-02T10:32:40.317Z,3.87
2022-09-02T10:35:12.587Z,3.83
2022-09-02T10:37:50.721Z,3.93
2022-09-02T10:40:21.410Z,4.03
2022-09-02T10:43:02.097Z,4.30
2022-09-02T10:45:35.138Z,4.00
2022-09-02T10:48:15.232Z,4.10
2022-09-02T10:50:49.969Z,3.70
2022-09-02T10:53:34.612Z,4.10
2022-09-02T10:56:05.157Z,4.10
2022-09-02T10:58:41.988Z,3.87
2022-09-02T11:01:12.249Z,3.63
2022-09-02T11:03:43.655Z,3.97
2022-09-02T11:06:16.988Z,4.10
2022-09-02T11:08:48.916Z,3.87
2022-09-02T11:11:21.515Z,3.97
2022-09-02T11:13:58.785Z,3.80
2022-09-02T11:16:30.941Z,3.60
2022-09-02T11:19:03.977Z,3.73
2022-09-02T11:21:40.252Z,3.60
2022-09-02T11:24:11.538Z,3.73
2022-09-02T11:26:42.734Z,3.67
2022-09-02T11:29:14.057Z,3.60
2022-09-02T11:31:44.956Z,3.83
2022-09-02T11:34:23.993Z,3.87
2022-09-02T11:36:53.022Z,4.17
2022-09-02T11:39:42.844Z,3.93
2022-09-02T11:42:30.924Z,4.00
2022-09-02T11:45:29.758Z,3.83
2022-09-02T11:48:24.964Z,3.93
2022-09-02T11:51:05.156Z,4.20
2022-09-02T11:53:37.419Z,3.73
2022-09-02T11:56:12.089Z,3.83
2022-09-02T11:58:45.806Z,3.80
2022-09-02T12:01:35.205Z,4.00
2022-09-02T12:04:55.905Z,3.60
2022-09-02T12:07:26.855Z,3.70
2022-09-02T12:09:59.915Z,3.83
2022-09-02T12:13:08.462Z,3.70
2022-09-02T12:15:38.506Z,3.50
2022-09-02T12:18:31.082Z,4.00
2022-09-02T12:21:18.261Z,3.67
2022-09-02T12:24:22.133Z,3.60
2022-09-02T12:27:10.027Z,4.47
2022-09-02T12:29:39.926Z,3.77
2022-09-02T12:32:09.928Z,3.60
2022-09-02T12:34:54.271Z,3.70
2022-09-02T12:37:54.886Z,3.90
2022-09-02T12:40:35.522Z,3.93
2022-09-02T12:43:08.045Z,3.80
2022-09-02T12:45:43.871Z,3.80
2022-09-02T12:48:14.720Z,3.70
2022-09-02T12:50:55.485Z,3.63
2022-09-02T12:53:31.403Z,3.77
2022-09-02T12:56:04.411Z,3.67
2022-09-02T12:58:35.749Z,4.30
2022-09-02T13:01:14.305Z,3.67
2022-09-02T13:04:12.102Z,4.20
2022-09-02T13:06:52.289Z,3.93
2022-09-02T13:09:42.636Z,3.40
2022-09-02T13:12:43.933Z,3.50
2022-09-02T13:15:23.782Z,3.57
2022-09-02T13:18:30.264Z,3.90
2022-09-02T13:21:08.070Z,3.70
2022-09-02T13:24:20.642Z,3.90
2022-09-02T13:27:23.174Z,3.30
2022-09-02T13:30:07.090Z,3.80
2022-09-02T13:32:35.783Z,3.73
2022-09-02T13:35:06.736Z,3.50
2022-09-02T13:37:37.959Z,3.60
2022-09-02T13:40:18.439Z,3.50
2022-09-02T13:42:50.846Z,3.80
2022-09-02T13:45:20.287Z,3.70
2022-09-02T13:47:50.142Z,3.80
2022-09-02T13:50:21.680Z,3.90
2022-09-02T13:55:49.108Z,3.70
2022-09-02T13:58:24.504Z,3.60
2022-09-02T14:01:01.129Z,3.50
2022-09-02T14:03:32.969Z,3.43
2022-09-02T14:06:02.159Z,3.70
2022-09-02T14:08:32.782Z,3.43
2022-09-02T14:11:07.419Z,4.47
2022-09-02T14:13:36.870Z,3.37
2022-09-02T14:16:33.340Z,3.80
2022-09-02T14:19:09.177Z,3.20
2022-09-02T14:21:38.431Z,2.90
2022-09-02T14:24:13.474Z,3.27
2022-09-02T14:26:43.811Z,3.03
2022-09-02T14:29:15.203Z,3.07
2022-09-02T14:31:43.379Z,3.00
2022-09-02T14:34:34.215Z,3.23
2022-09-02T14:37:02.531Z,3.10
2022-09-02T14:39:32.081Z,3.37
2022-09-02T14:42:00.301Z,3.53
2022-09-02T14:44:33.992Z,3.27
2022-09-02T14:47:04.698Z,3.97
2022-09-02T14:49:34.970Z,3.63
2022-09-02T14:52:06.082Z,3.40
2022-09-02T14:54:37.540Z,4.10
2022-09-02T14:57:06.539Z,3.43
2022-09-02T14:59:34.579Z,3.40
2022-09-02T15:02:02.839Z,3.23
2022-09-02T15:04:32.964Z,3.50
2022-09-02T15:07:01.684Z,2.70
2022-09-02T15:09:32.085Z,3.00
2022-09-02T15:12:02.910Z,3.53
2022-09-02T15:14:31.150Z,3.00
2022-09-02T15:16:59.359Z,2.80
2022-09-02T15:19:27.431Z,3.00
2022-09-02T15:21:55.500Z,2.70
2022-09-02T15:24:24.467Z,2.80
2022-09-02T15:26:52.720Z,2.70
2022-09-02T15:29:26.920Z,2.93
2022-09-02T15:31:58.646Z,3.00
2022-09-02T15:34:28.164Z,2.90
2022-09-02T15:36:57.333Z,2.50
2022-09-02T15:39:27.212Z,3.05
2022-09-02T15:41:56.416Z,2.80
2022-09-02T15:44:26.918Z,2.70
2022-09-02T15:46:58.247Z,2.73
2022-09-02T15:49:26.519Z,2.87
2022-09-02T15:51:55.181Z,2.70
2022-09-02T15:54:24.932Z,2.80
2022-09-02T15:56:56.615Z,2.70
2022-09-02T15:59:28.160Z,2.60
2022-09-02T16:01:58.702Z,2.73
2022-09-02T16:04:29.362Z,2.83
2022-09-02T16:06:58.203Z,2.80
2022-09-02T16:09:26.424Z,2.60
2022-09-02T16:11:56.194Z,3.27
2022-09-02T16:14:26.628Z,2.70
2022-09-02T16:16:55.830Z,2.80
2022-09-02T16:19:27.632Z,2.87
2022-09-02T16:21:57.882Z,3.00
2022-09-02T16:24:26.031Z,2.80
2022-09-02T16:26:54.355Z,2.77
2022-09-02T16:29:27.113Z,2.70
2022-09-02T16:34:46.856Z,3.10
2022-09-02T16:37:15.496Z,3.30
2022-09-02T16:39:43.990Z,3.60
2022-09-02T16:42:12.055Z,3.40
2022-09-02T16:44:41.557Z,3.17
2022-09-02T16:47:12.889Z,3.77
2022-09-02T16:49:42.145Z,3.60
2022-09-02T16:52:10.195Z,3.90
2022-09-02T16:54:40.848Z,3.53
2022-09-02T16:57:09.542Z,3.30
2022-09-02T16:59:37.617Z,3.60
2022-09-02T17:02:05.979Z,4.47
2022-09-02T17:04:35.505Z,3.50
2022-09-02T17:07:04.167Z,3.50
2022-09-02T17:09:32.469Z,3.90
2022-09-02T17:12:00.544Z,4.00
2022-09-02T17:14:28.649Z,3.50
2022-09-02T17:16:56.866Z,3.27
2022-09-02T17:19:29.856Z,3.40
2022-09-02T17:22:01.470Z,3.60
2022-09-02T17:24:30.764Z,3.17
2022-09-02T17:27:00.517Z,3.33
2022-09-02T17:29:48.885Z,3.70
2022-09-02T17:32:17.770Z,3.37
2022-09-02T17:34:45.924Z,3.87
2022-09-02T17:37:15.361Z,3.80
2022-09-02T17:39:43.502Z,4.30
2022-09-02T17:42:10.725Z,4.23
2022-09-02T17:44:40.210Z,3.57
2022-09-02T17:47:11.120Z,4.20
2022-09-02T17:49:42.289Z,3.97
2022-09-02T17:52:11.407Z,3.73
2022-09-02T17:54:41.780Z,4.00
2022-09-02T17:57:17.009Z,3.87
2022-09-02T17:59:53.362Z,4.10
2022-09-02T18:02:56.553Z,6.50
2022-09-02T18:05:29.398Z,4.77
2022-09-02T18:08:01.701Z,4.10
2022-09-02T18:10:35.992Z,3.97
2022-09-02T18:13:06.044Z,3.80
2022-09-02T18:15:38.704Z,4.00
2022-09-02T18:18:07.349Z,4.20
2022-09-02T18:20:41.688Z,4.80
2022-09-02T18:23:22.490Z,4.70
2022-09-02T18:26:00.280Z,4.50
2022-09-02T18:28:38.637Z,4.30
2022-09-02T18:31:16.676Z,4.67
2022-09-02T18:33:57.544Z,4.17
2022-09-02T18:36:35.381Z,4.67
2022-09-02T18:39:14.175Z,5.80
2022-09-02T18:41:54.948Z,5.23
2022-09-02T18:44:31.120Z,4.53
2022-09-02T18:47:03.494Z,4.57
2022-09-02T18:49:34.782Z,5.00
2022-09-02T18:52:05.421Z,5.53
2022-09-02T18:54:40.597Z,5.00
2022-09-02T18:57:10.271Z,5.30
2022-09-02T18:59:43.380Z,4.43
2022-09-02T19:02:20.818Z,4.00
2022-09-02T19:04:48.947Z,4.60
2022-09-02T19:07:37.638Z,5.27
2022-09-02T19:10:09.044Z,5.10
2022-09-02T19:12:40.347Z,4.93
2022-09-02T19:15:10.359Z,5.10
2022-09-02T19:17:41.695Z,5.07
2022-09-02T19:20:10.179Z,5.17
2022-09-02T19:22:40.787Z,4.73
2022-09-02T19:25:11.923Z,5.27
2022-09-02T19:27:43.197Z,5.03
2022-09-02T19:30:15.029Z,5.23
2022-09-02T19:32:45.019Z,5.87
2022-09-02T19:35:16.694Z,5.97
2022-09-02T19:37:47.057Z,5.73
2022-09-02T19:40:20.303Z,5.67
2022-09-02T19:42:51.976Z,5.17
2022-09-02T19:45:21.700Z,5.47
2022-09-02T19:50:40.889Z,5.03
2022-09-02T19:53:10.684Z,4.60
2022-09-02T19:55:39.015Z,4.93
2022-09-02T19:58:08.794Z,6.60
2022-09-02T20:00:36.946Z,7.20
2022-09-02T20:03:05.165Z,4.83
2022-09-02T20:05:33.579Z,4.33
2022-09-02T20:08:01.650Z,5.30
2022-09-02T20:10:30.245Z,5.20
2022-09-02T20:12:59.327Z,4.90
2022-09-02T20:15:28.870Z,4.67
2022-09-02T20:18:00.847Z,4.67
2022-09-02T20:20:29.055Z,4.43
2022-09-02T20:22:57.512Z,4.77
2022-09-02T20:25:30.998Z,4.77
2022-09-02T20:28:07.723Z,5.10
2022-09-02T20:30:39.417Z,4.90
2022-09-02T20:33:14.801Z,4.70
2022-09-02T20:35:58.052Z,4.73
2022-09-02T20:38:50.674Z,4.70
2022-09-02T20:41:28.922Z,4.70
2022-09-02T20:44:09.094Z,4.40
2022-09-02T20:46:48.068Z,4.87
2022-09-02T20:49:27.823Z,4.70
2022-09-02T20:52:01.843Z,5.10
2022-09-02T20:54:39.253Z,4.77
2022-09-02T20:57:18.124Z,4.77
2022-09-02T20:59:54.743Z,5.00
2022-09-02T21:02:29.539Z,4.93
2022-09-02T21:05:01.799Z,5.27
2022-09-02T21:07:34.345Z,5.03
2022-09-02T21:10:07.521Z,4.77
2022-09-02T21:12:41.269Z,4.50
2022-09-02T21:15:14.943Z,4.33
2022-09-02T21:17:48.878Z,4.70
2022-09-02T21:20:21.199Z,5.10
2022-09-02T21:22:52.612Z,4.97
2022-09-02T21:25:25.329Z,5.30
2022-09-02T21:27:58.221Z,4.90
2022-09-02T21:30:28.517Z,4.93
2022-09-02T21:33:00.125Z,5.57
2022-09-02T21:35:30.989Z,4.90
2022-09-02T21:38:02.347Z,4.80
2022-09-02T21:40:43.759Z,5.00
2022-09-02T21:43:22.378Z,5.00
2022-09-02T21:45:57.848Z,5.30
2022-09-02T21:48:35.037Z,5.17
2022-09-02T21:51:05.903Z,4.50
2022-09-02T21:53:44.917Z,5.13
2022-09-02T21:56:21.375Z,4.50
2022-09-02T21:59:07.882Z,4.67
2022-09-02T22:02:01.666Z,4.77
2022-09-02T22:04:41.126Z,4.57
2022-09-02T22:07:16.922Z,4.70
2022-09-02T22:09:45.038Z,4.83
2022-09-02T22:12:14.666Z,5.17
2022-09-02T22:14:46.669Z,4.60
2022-09-02T22:17:20.393Z,5.00
2022-09-02T22:19:57.818Z,4.70
2022-09-02T22:22:29.504Z,4.97
2022-09-02T22:24:58.052Z,5.03
2022-09-02T22:27:32.885Z,4.90
2022-09-02T22:30:04.944Z,5.23
2022-09-02T22:32:37.454Z,5.47
2022-09-02T22:35:11.093Z,5.07
2022-09-02T22:37:45.312Z,5.00
2022-09-02T22:40:15.737Z,5.40
2022-09-02T22:42:46.889Z,4.67
2022-09-02T22:45:35.397Z,4.67
2022-09-02T22:48:21.894Z,4.87
2022-09-02T22:51:18.477Z,4.83
2022-09-02T22:53:48.068Z,4.97
2022-09-02T22:56:18.319Z,5.37
2022-09-02T22:59:10.355Z,4.93
2022-09-02T23:01:51.739Z,5.57
2022-09-02T23:04:30.651Z,4.70
2022-09-02T23:07:05.054Z,4.97
2022-09-02T23:09:33.798Z,4.90
2022-09-02T23:12:07.590Z,5.07
2022-09-02T23:14:41.888Z,5.33
2022-09-02T23:17:20.340Z,4.97
2022-09-02T23:20:08.101Z,5.40
2022-09-02T23:22:49.215Z,5.10
2022-09-02T23:25:34.414Z,5.43
2022-09-02T23:28:11.797Z,5.67
2022-09-02T23:30:49.301Z,5.67
2022-09-02T23:33:25.778Z,5.07
2022-09-02T23:35:59.921Z,5.27
2022-09-02T23:38:54.274Z,5.80
2022-09-02T23:41:22.841Z,5.20
2022-09-02T23:43:50.999Z,5.27
2022-09-02T23:46:28.648Z,5.50
2022-09-02T23:49:05.455Z,5.13
2022-09-02T23:51:40.596Z,5.13
2022-09-02T23:54:22.392Z,5.80
2022-09-02T23:57:01.952Z,5.67
2022-09-02T23:59:42.682Z,4.97
